Time;durP1;ratioP1;P1;durP2;ratioP2;P2;SDS_P1;SDS_P2;PMS_P1;PMS_P2;Temp;Humidity;BMP_temperature;BMP_pressure;BME280_temperature;BME280_humidity;BME280_pressure;Samples;Min_cycle;Max_cycle;Signal;HPM_P1;HPM_P2
2021/08/30 00:00:01;;;;;;;1.50;1.10;;;;;;;21.05;49.56;99829.53;4959315;28;20041;-77
2021/08/30 00:02:26;;;;;;;0.98;0.88;;;;;;;21.20;48.32;99830.75;4958807;28;20071;-73
2021/08/30 00:04:52;;;;;;;2.88;1.00;;;;;;;21.28;48.04;99831.34;4959018;28;20031;-75
2021/08/30 00:07:18;;;;;;;1.55;1.10;;;;;;;21.17;48.55;99835.25;4959482;28;20062;-73
2021/08/30 00:09:43;;;;;;;1.23;1.13;;;;;;;21.03;49.50;99829.16;4959207;28;20488;-75
2021/08/30 00:12:10;;;;;;;0.70;0.70;;;;;;;21.03;49.12;99827.13;4959443;28;20039;-73
2021/08/30 00:14:37;;;;;;;1.23;0.98;;;;;;;21.02;49.45;99822.72;4958692;28;20061;-75
2021/08/30 00:17:03;;;;;;;0.75;0.75;;;;;;;20.97;49.04;99828.09;4957639;28;20530;-75
2021/08/30 00:19:32;;;;;;;2.85;0.90;;;;;;;20.96;49.22;99820.88;4958260;28;20145;-74
2021/08/30 00:21:57;;;;;;;0.75;0.75;;;;;;;20.98;48.90;99821.19;4958972;28;20057;-72
2021/08/30 00:24:24;;;;;;;0.90;0.90;;;;;;;20.94;48.71;99824.16;4958309;28;20466;-74
2021/08/30 00:26:51;;;;;;;0.82;0.80;;;;;;;20.75;48.69;99794.72;4957986;28;20478;-77
2021/08/30 00:29:17;;;;;;;1.00;0.85;;;;;;;20.96;48.75;99820.88;4958638;28;20082;-74
2021/08/30 00:31:42;;;;;;;3.50;0.80;;;;;;;20.93;48.45;99812.03;4958384;28;20426;-78
2021/08/30 00:34:08;;;;;;;0.85;0.85;;;;;;;20.86;48.55;99817.84;4958359;28;20027;-75
2021/08/30 00:36:34;;;;;;;0.93;0.70;;;;;;;20.93;48.90;99822.53;4958696;28;20031;-75
2021/08/30 00:38:59;;;;;;;2.00;0.88;;;;;;;21.01;48.46;99823.16;4958606;28;20042;-73
2021/08/30 00:41:25;;;;;;;0.60;0.60;;;;;;;20.98;48.83;99815.53;4958671;28;20030;-79
2021/08/30 00:43:52;;;;;;;1.13;1.05;;;;;;;20.92;48.42;99815.28;4958236;28;20097;-77
2021/08/30 00:46:18;;;;;;;1.17;1.08;;;;;;;20.99;48.45;99823.59;4957930;28;20125;-78
2021/08/30 00:48:46;;;;;;;2.33;1.38;;;;;;;20.90;48.75;99817.78;4957904;28;20461;-78
2021/08/30 00:51:14;;;;;;;1.30;1.20;;;;;;;20.86;49.08;99823.50;4974871;28;20069;-75
2021/08/30 00:53:43;;;;;;;2.13;1.00;;;;;;;20.79;48.90;99823.69;4958140;28;20023;-78
2021/08/30 00:56:08;;;;;;;1.20;1.10;;;;;;;20.76;49.08;99816.09;4958313;28;20034;-80
2021/08/30 00:58:34;;;;;;;2.35;1.30;;;;;;;20.85;48.91;99824.75;4957831;28;20038;-76
2021/08/30 01:00:59;;;;;;;1.35;1.05;;;;;;;20.82;49.03;99825.63;4957944;28;20054;-75
2021/08/30 01:03:25;;;;;;;3.92;0.93;;;;;;;20.84;49.27;99830.84;4957990;28;20041;-74
2021/08/30 01:05:58;;;;;;;1.10;1.00;;;;;;;20.75;49.59;99825.81;4958006;28;20038;-75
2021/08/30 01:08:33;;;;;;;1.60;1.00;;;;;;;20.78;49.32;99833.41;4942235;28;20422;-78
2021/08/30 01:11:13;;;;;;;0.82;0.70;;;;;;;20.72;49.70;99826.72;4957781;28;20478;-79
2021/08/30 01:13:50;;;;;;;0.80;0.80;;;;;;;20.73;49.71;99831.13;4957248;28;20085;-72
2021/08/30 01:16:19;;;;;;;0.80;0.80;;;;;;;20.73;49.38;99827.50;4957622;28;20030;-76
2021/08/30 01:18:49;;;;;;;1.75;1.08;;;;;;;20.71;49.32;99819.44;4958121;28;20093;-76
2021/08/30 01:21:37;;;;;;;0.77;0.77;;;;;;;20.63;49.94;99818.81;4957667;28;20034;-76
2021/08/30 01:24:15;;;;;;;1.50;0.80;;;;;;;20.59;50.12;99826.59;4957643;28;20027;-73
2021/08/30 01:26:45;;;;;;;3.90;1.17;;;;;;;20.63;49.86;99816.00;4957419;28;20061;-77
2021/08/30 01:29:25;;;;;;;1.17;0.80;;;;;;;20.66;49.41;99820.75;4957141;28;20042;-78
2021/08/30 01:31:55;;;;;;;0.80;0.80;;;;;;;20.57;49.76;99820.59;4974992;28;20022;-75
2021/08/30 01:34:22;;;;;;;0.60;0.60;;;;;;;20.59;49.84;99814.50;4957477;28;20050;-76
2021/08/30 01:36:50;;;;;;;2.13;1.10;;;;;;;20.62;49.40;99819.28;4942630;28;20035;-75
2021/08/30 01:39:17;;;;;;;0.70;0.70;;;;;;;20.50;49.83;99828.44;4961783;28;20046;-73
2021/08/30 01:41:44;;;;;;;1.05;0.95;;;;;;;20.46;49.96;99828.53;4961549;28;20031;-78
2021/08/30 01:44:11;;;;;;;2.85;0.85;;;;;;;20.56;49.83;99821.00;4961515;28;20034;-75
2021/08/30 01:46:38;;;;;;;1.48;1.00;;;;;;;20.53;50.15;99827.56;4961267;28;20066;-71
2021/08/30 01:49:05;;;;;;;1.73;0.80;;;;;;;20.42;50.57;99831.41;4961449;28;20033;-72
2021/08/30 01:51:34;;;;;;;1.30;1.20;;;;;;;20.44;50.58;99830.94;4961394;28;20031;-77
2021/08/30 01:54:03;;;;;;;2.08;0.63;;;;;;;20.47;50.42;99829.31;4961048;28;20030;-77
2021/08/30 01:56:31;;;;;;;0.80;0.80;;;;;;;20.42;50.24;99828.56;4945630;28;20030;-76
2021/08/30 02:01:41;;;;;;;1.48;0.90;;;;;;;20.32;51.42;99828.81;4978718;28;20385;-72
2021/08/30 02:04:07;;;;;;;1.23;0.90;;;;;;;20.30;51.06;99831.28;4960865;28;20035;-73
2021/08/30 02:06:35;;;;;;;0.77;0.77;;;;;;;20.27;51.51;99835.78;4961110;28;20155;-76
2021/08/30 02:09:05;;;;;;;2.17;0.95;;;;;;;20.31;50.94;99827.22;4977837;28;20474;-74
2021/08/30 02:11:35;;;;;;;2.78;1.00;;;;;;;20.28;51.16;99834.53;4961030;28;20027;-79
2021/08/30 02:14:07;;;;;;;0.80;0.80;;;;;;;20.33;51.04;99836.03;4961192;28;20031;-73
2021/08/30 02:16:33;;;;;;;0.88;0.75;;;;;;;20.29;50.50;99833.28;4978144;28;20054;-74
2021/08/30 02:19:02;;;;;;;0.90;0.90;;;;;;;20.33;50.87;99828.38;4960642;28;20422;-75
2021/08/30 02:21:52;;;;;;;1.30;1.00;;;;;;;20.26;50.75;99836.22;4960651;28;20085;-74
2021/08/30 02:24:36;;;;;;;1.48;0.90;;;;;;;20.10;51.14;99806.69;4960539;28;20540;-75
2021/08/30 02:27:05;;;;;;;1.58;0.85;;;;;;;20.26;51.04;99830.56;4960944;28;20027;-77
2021/08/30 02:29:38;;;;;;;1.08;0.77;;;;;;;20.28;50.73;99831.72;4960947;28;20031;-73
2021/08/30 02:32:05;;;;;;;1.27;0.93;;;;;;;20.22;50.32;99836.28;4960803;28;20050;-78
2021/08/30 02:34:32;;;;;;;1.27;0.90;;;;;;;20.30;50.71;99842.59;4959954;28;20038;-73
2021/08/30 02:37:01;;;;;;;2.25;1.17;;;;;;;20.18;50.53;99823.47;4960967;28;20468;-76
2021/08/30 02:39:28;;;;;;;1.60;1.10;;;;;;;20.12;50.93;99828.84;4960604;28;20113;-77
2021/08/30 02:41:55;;;;;;;0.70;0.70;;;;;;;20.12;51.52;99826.81;4960769;28;20038;-78
2021/08/30 02:44:21;;;;;;;1.95;1.10;;;;;;;20.17;51.56;99838.81;4960779;28;20141;-75
2021/08/30 02:46:47;;;;;;;2.38;1.00;;;;;;;20.17;50.83;99828.31;4960652;28;20050;-72
2021/08/30 02:49:14;;;;;;;1.00;0.90;;;;;;;20.17;50.79;99825.50;4958879;28;20478;-78
2021/08/30 02:51:41;;;;;;;0.60;0.60;;;;;;;20.17;50.58;99830.34;4960212;28;20123;-78
2021/08/30 02:54:09;;;;;;;1.50;1.23;;;;;;;20.19;50.89;99827.88;4944369;28;20040;-76
2021/08/30 02:56:37;;;;;;;2.45;1.52;;;;;;;20.18;50.81;99824.25;4960247;28;20058;-78
2021/08/30 02:59:03;;;;;;;3.95;2.83;;;;;;;20.16;51.19;99829.56;4960151;28;20070;-78
2021/08/30 03:01:30;;;;;;;13.07;10.65;;;;;;;20.15;50.88;99837.25;4959849;28;20035;-74
2021/08/30 03:03:56;;;;;;;6.55;5.20;;;;;;;20.18;50.82;99841.22;4959786;28;20038;-74
2021/08/30 03:06:24;;;;;;;2.20;1.65;;;;;;;20.15;50.89;99836.44;4960002;28;20031;-76
2021/08/30 03:08:49;;;;;;;4.15;1.92;;;;;;;20.04;51.51;99827.41;4960224;28;20462;-73
2021/08/30 03:11:16;;;;;;;3.40;3.10;;;;;;;20.03;51.43;99828.66;4959776;28;20033;-74
2021/08/30 03:13:43;;;;;;;4.53;4.13;;;;;;;19.98;51.46;99832.00;4959895;28;20031;-77
2021/08/30 03:16:09;;;;;;;1.77;1.67;;;;;;;20.05;51.18;99829.00;4977023;28;20031;-74
2021/08/30 03:18:39;;;;;;;1.15;1.05;;;;;;;20.08;50.78;99825.28;4959655;28;20063;-76
2021/08/30 03:21:06;;;;;;;1.48;1.30;;;;;;;19.93;51.37;99824.03;4959655;28;20035;-74
2021/08/30 03:23:32;;;;;;;1.75;1.65;;;;;;;19.99;51.52;99825.09;4959858;28;20466;-78
2021/08/30 03:25:58;;;;;;;3.63;1.60;;;;;;;19.97;50.88;99824.72;4959700;28;20117;-75
2021/08/30 03:28:24;;;;;;;1.40;1.30;;;;;;;20.01;50.71;99825.44;4958864;28;20090;-75
2021/08/30 03:30:52;;;;;;;3.78;1.65;;;;;;;20.00;51.25;99832.34;4959395;28;20034;-76
2021/08/30 03:33:20;;;;;;;1.40;1.30;;;;;;;20.00;50.83;99830.31;4976612;28;20030;-76
2021/08/30 03:35:47;;;;;;;1.63;1.40;;;;;;;19.86;51.41;99831.38;4976387;28;20086;-78
2021/08/30 03:38:13;;;;;;;2.20;1.40;;;;;;;19.88;51.43;99839.44;4959190;28;20482;-79
2021/08/30 03:40:42;;;;;;;3.63;1.40;;;;;;;19.86;52.01;99839.84;4959207;28;20058;-76
2021/08/30 03:43:09;;;;;;;1.45;1.20;;;;;;;19.81;51.84;99833.91;4959289;28;20113;-80
2021/08/30 03:45:37;;;;;;;2.47;1.15;;;;;;;19.80;51.97;99837.97;4976275;28;20038;-76
2021/08/30 03:48:09;;;;;;;1.52;1.40;;;;;;;19.81;51.93;99842.41;4959137;28;20038;-74
2021/08/30 03:50:36;;;;;;;3.28;1.17;;;;;;;19.85;51.77;99848.78;4959229;28;20050;-73
2021/08/30 03:53:02;;;;;;;1.45;1.20;;;;;;;19.82;51.91;99841.97;4959557;28;20422;-74
2021/08/30 03:55:29;;;;;;;3.28;1.10;;;;;;;19.83;52.38;99852.03;4943265;28;20031;-76
2021/08/30 03:57:57;;;;;;;3.35;1.30;;;;;;;19.83;51.93;99854.06;4959585;28;20121;-79
2021/08/30 04:00:25;;;;;;;2.15;0.98;;;;;;;19.77;52.16;99862.25;4958759;28;20470;-79
2021/08/30 04:02:52;;;;;;;2.15;1.30;;;;;;;19.79;52.09;99851.31;4975767;28;20484;-74
2021/08/30 04:05:21;;;;;;;1.85;1.35;;;;;;;19.73;51.78;99838.94;4958644;28;20027;-73
2021/08/30 04:07:47;;;;;;;1.33;1.23;;;;;;;19.73;52.45;99855.88;4958686;28;20027;-78
2021/08/30 04:10:13;;;;;;;2.42;1.23;;;;;;;19.72;52.66;99861.94;4958588;28;20030;-78
2021/08/30 04:12:40;;;;;;;1.77;1.52;;;;;;;19.78;52.19;99866.66;4958541;28;20034;-74
2021/08/30 04:15:06;;;;;;;1.42;1.33;;;;;;;19.73;52.76;99869.19;4958557;28;20065;-75
2021/08/30 04:17:31;;;;;;;1.55;1.40;;;;;;;19.84;51.93;99866.94;4958407;28;20027;-74
2021/08/30 04:19:57;;;;;;;1.48;1.25;;;;;;;19.82;52.00;99873.03;4958041;28;20058;-75
2021/08/30 04:22:22;;;;;;;1.77;1.20;;;;;;;19.82;51.86;99870.22;4958850;28;20054;-78
2021/08/30 04:24:48;;;;;;;1.50;1.30;;;;;;;19.77;52.15;99864.28;4958782;28;20038;-73
2021/08/30 04:27:13;;;;;;;2.40;1.60;;;;;;;19.76;52.42;99877.59;4958661;28;20466;-77
2021/08/30 04:29:39;;;;;;;2.08;1.02;;;;;;;19.86;51.57;99870.13;4958630;28;20382;-74
2021/08/30 04:32:08;;;;;;;2.47;1.13;;;;;;;19.83;51.65;99873.81;4958852;28;20477;-76
2021/08/30 04:34:34;;;;;;;2.30;1.38;;;;;;;19.90;51.54;99887.78;4942627;28;20039;-79
2021/08/30 04:37:00;;;;;;;2.72;1.42;;;;;;;19.88;51.33;99881.78;4958184;28;20030;-72
2021/08/30 04:39:25;;;;;;;1.90;1.02;;;;;;;19.86;51.05;99882.22;4958453;28;20046;-75
2021/08/30 04:41:51;;;;;;;3.67;0.85;;;;;;;19.90;51.00;99887.78;4958439;28;20536;-79
2021/08/30 04:44:16;;;;;;;0.82;0.82;;;;;;;19.86;51.25;99882.22;4958224;28;20055;-81
2021/08/30 04:46:42;;;;;;;0.80;0.80;;;;;;;19.84;51.62;99884.69;4958437;28;20085;-75
2021/08/30 04:49:08;;;;;;;1.30;1.08;;;;;;;19.90;51.25;99890.63;4958366;28;20387;-75
2021/08/30 04:51:34;;;;;;;1.60;1.20;;;;;;;20.06;50.88;99901.19;4942014;28;20034;-79
2021/08/30 04:53:59;;;;;;;1.85;1.35;;;;;;;20.29;50.18;99901.09;4958221;28;20041;-73
2021/08/30 04:56:25;;;;;;;1.48;1.00;;;;;;;20.30;50.46;99899.88;4958481;28;20375;-79
2021/08/30 04:58:50;;;;;;;1.08;0.85;;;;;;;20.26;50.28;99898.38;4957894;28;20041;-76
2021/08/30 05:01:16;;;;;;;2.42;1.05;;;;;;;20.45;50.17;99913.69;4958679;28;20027;-75
2021/08/30 05:03:41;;;;;;;0.93;0.77;;;;;;;20.67;49.70;99904.34;4957903;28;20462;-73
2021/08/30 05:06:07;;;;;;;1.08;1.00;;;;;;;21.09;48.33;99907.41;4958289;28;20208;-74
2021/08/30 05:08:33;;;;;;;0.70;0.70;;;;;;;21.85;46.59;99909.91;4957685;28;20398;-77
2021/08/30 05:11:00;;;;;;;2.80;1.10;;;;;;;22.56;44.67;99917.59;4958077;28;20030;-77
2021/08/30 05:13:27;;;;;;;5.88;1.02;;;;;;;23.12;43.04;99919.94;4957814;28;20028;-77
2021/08/30 05:15:52;;;;;;;0.93;0.93;;;;;;;23.60;42.17;99915.84;4956915;28;20030;-75
2021/08/30 05:18:18;;;;;;;1.42;1.00;;;;;;;24.08;41.05;99927.19;4957552;28;20046;-78
2021/08/30 05:20:49;;;;;;;2.90;1.23;;;;;;;24.55;40.23;99921.34;4957341;28;20030;-76
2021/08/30 05:23:14;;;;;;;2.40;1.17;;;;;;;25.02;39.09;99923.16;4957481;28;20034;-75
2021/08/30 05:25:40;;;;;;;1.95;1.40;;;;;;;25.34;38.29;99925.50;4958354;28;20035;-80
2021/08/30 05:28:06;;;;;;;1.88;1.00;;;;;;;25.69;37.50;99933.03;4956491;28;20521;-76
2021/08/30 05:30:31;;;;;;;1.50;1.02;;;;;;;26.15;37.09;99939.53;4957368;28;20038;-74
2021/08/30 05:33:00;;;;;;;3.17;1.15;;;;;;;26.48;36.28;99942.56;4957529;28;20027;-74
2021/08/30 05:35:26;;;;;;;1.17;1.10;;;;;;;26.98;35.30;99945.88;4957373;28;20042;-77
2021/08/30 05:37:53;;;;;;;1.95;1.25;;;;;;;27.31;34.41;99942.28;4957357;28;20038;-77
2021/08/30 05:40:19;;;;;;;3.80;1.63;;;;;;;27.69;34.12;99947.28;4957387;28;20058;-77
2021/08/30 05:42:45;;;;;;;1.50;1.40;;;;;;;28.17;33.45;99953.75;4957062;28;20166;-77
2021/08/30 05:45:11;;;;;;;2.85;1.40;;;;;;;28.36;32.60;99957.28;4957173;28;20121;-74
2021/08/30 05:47:37;;;;;;;2.70;1.45;;;;;;;28.67;31.95;99956.03;4957295;28;20042;-76
2021/08/30 05:50:03;;;;;;;1.75;1.30;;;;;;;29.00;31.61;99950.09;4957001;28;20034;-78
2021/08/30 05:52:29;;;;;;;1.45;1.25;;;;;;;29.02;31.05;99958.19;4957798;28;20039;-77
2021/08/30 05:54:54;;;;;;;4.20;1.40;;;;;;;29.46;30.88;99958.09;4957804;28;20173;-75
2021/08/30 05:57:20;;;;;;;4.93;2.00;;;;;;;29.46;30.47;99963.81;4958068;28;20034;-74
2021/08/30 05:59:45;;;;;;;3.75;1.85;;;;;;;28.70;31.62;99961.53;4957540;28;20035;-79
2021/08/30 06:02:11;;;;;;;3.00;1.67;;;;;;;29.13;30.65;99959.13;4956201;28;20035;-77
2021/08/30 06:04:37;;;;;;;2.33;1.48;;;;;;;29.27;30.33;99959.63;4957087;28;20463;-74
2021/08/30 06:07:03;;;;;;;3.95;2.17;;;;;;;29.21;30.87;99960.31;4957105;28;20121;-75
2021/08/30 06:09:30;;;;;;;2.85;1.70;;;;;;;29.73;30.35;99969.19;4956961;28;20061;-75
2021/08/30 06:11:55;;;;;;;1.90;1.80;;;;;;;30.03;29.50;99969.03;4957315;28;20039;-76
2021/08/30 06:14:22;;;;;;;3.05;1.55;;;;;;;29.84;29.54;99965.69;4956860;28;20026;-76
2021/08/30 06:16:47;;;;;;;2.60;1.50;;;;;;;30.56;28.70;99967.81;4941012;28;20094;-78
2021/08/30 06:19:13;;;;;;;3.40;1.55;;;;;;;29.88;29.20;99971.19;4956937;28;20086;-78
2021/08/30 06:21:38;;;;;;;4.50;3.20;;;;;;;30.35;29.14;99972.03;4957205;28;20034;-78
2021/08/30 06:24:05;;;;;;;3.28;2.28;;;;;;;30.94;28.17;99983.06;4958277;28;20023;-75
2021/08/30 06:26:30;;;;;;;1.80;1.55;;;;;;;31.21;28.28;99973.88;4960926;28;20125;-76
2021/08/30 06:28:56;;;;;;;2.13;1.35;;;;;;;30.14;29.20;99982.75;4960405;28;20142;-74
2021/08/30 06:31:22;;;;;;;3.35;2.00;;;;;;;30.18;29.35;99984.09;4960127;28;20057;-78
2021/08/30 06:33:48;;;;;;;2.67;1.70;;;;;;;29.90;29.47;99974.34;4960255;28;20510;-73
2021/08/30 06:36:13;;;;;;;3.05;1.88;;;;;;;29.44;31.19;99977.84;4960551;28;20088;-77
2021/08/30 06:38:39;;;;;;;2.95;1.95;;;;;;;29.52;30.46;99979.03;4960342;28;20041;-75
2021/08/30 06:41:04;;;;;;;3.83;2.20;;;;;;;29.56;30.85;99971.00;4960378;28;20018;-78
2021/08/30 06:43:30;;;;;;;3.00;2.30;;;;;;;29.25;31.09;99970.81;4960187;28;20038;-78
2021/08/30 06:45:56;;;;;;;2.47;1.98;;;;;;;29.39;30.65;99970.75;4959986;28;20490;-75
2021/08/30 06:48:21;;;;;;;5.47;2.58;;;;;;;28.80;31.77;99976.53;4960314;28;20041;-75
2021/08/30 06:50:49;;;;;;;3.00;2.55;;;;;;;28.99;31.29;99977.16;4960143;28;20030;-79
2021/08/30 06:53:15;;;;;;;3.28;2.88;;;;;;;29.21;31.19;99983.25;4960536;28;20374;-77
2021/08/30 06:55:41;;;;;;;4.55;2.72;;;;;;;29.39;30.91;99975.69;4960221;28;20065;-78
2021/08/30 06:58:06;;;;;;;2.63;2.42;;;;;;;29.34;31.41;99979.25;4960017;28;20492;-77
2021/08/30 07:00:32;;;;;;;3.72;2.40;;;;;;;29.67;30.73;99976.91;4959867;28;20119;-78
2021/08/30 07:02:57;;;;;;;5.82;2.47;;;;;;;29.51;30.51;99971.72;4960115;28;20047;-73
2021/08/30 07:05:23;;;;;;;2.35;1.77;;;;;;;29.44;30.50;99980.72;4959970;28;20027;-76
2021/08/30 07:07:49;;;;;;;4.68;2.40;;;;;;;29.46;31.11;99981.03;4959817;28;20035;-77
2021/08/30 07:10:17;;;;;;;2.80;2.30;;;;;;;29.74;30.46;99979.34;4959954;28;20033;-77
2021/08/30 07:12:42;;;;;;;2.85;2.20;;;;;;;30.34;29.93;99984.81;4977001;28;20057;-74
2021/08/30 07:15:08;;;;;;;2.65;1.73;;;;;;;29.72;30.51;99984.81;4959538;28;20382;-76
2021/08/30 07:17:34;;;;;;;2.00;1.80;;;;;;;29.98;30.32;99984.09;4959610;28;20198;-79
2021/08/30 07:20:00;;;;;;;2.08;1.75;;;;;;;28.82;32.14;99996.09;4959455;28;20534;-75
2021/08/30 07:22:25;;;;;;;4.47;2.13;;;;;;;29.23;31.99;99991.31;4959394;28;20537;-74
2021/08/30 07:24:51;;;;;;;5.40;2.17;;;;;;;29.85;30.67;99989.41;4959683;28;20089;-76
2021/08/30 07:27:17;;;;;;;5.20;2.10;;;;;;;29.49;31.05;99994.34;4959403;28;20035;-75
2021/08/30 07:29:43;;;;;;;3.47;2.40;;;;;;;29.17;31.46;99994.09;4959581;28;20034;-77
2021/08/30 07:32:09;;;;;;;3.80;2.05;;;;;;;29.10;31.81;99999.47;4959736;28;20035;-77
2021/08/30 07:34:34;;;;;;;3.95;2.42;;;;;;;28.09;33.71;100004.03;4959321;28;20140;-74
2021/08/30 07:37:00;;;;;;;4.00;2.72;;;;;;;28.89;32.50;100001.41;4959585;28;20030;-78
2021/08/30 07:39:26;;;;;;;5.07;2.80;;;;;;;28.79;33.05;100002.81;4959476;28;20034;-79
2021/08/30 07:41:52;;;;;;;3.90;2.90;;;;;;;28.89;32.81;100001.41;4959131;28;20031;-77
2021/08/30 07:44:18;;;;;;;4.00;2.80;;;;;;;29.45;32.01;99996.63;4959587;28;20019;-75
2021/08/30 07:46:44;;;;;;;4.00;3.00;;;;;;;29.46;31.65;99998.22;4959030;28;20037;-74
2021/08/30 07:49:10;;;;;;;2.97;2.20;;;;;;;29.56;31.43;100008.28;4959353;28;20031;-76
2021/08/30 07:51:38;;;;;;;7.30;2.85;;;;;;;29.62;31.64;100006.31;4959140;28;20122;-74
2021/08/30 07:54:04;;;;;;;4.38;2.58;;;;;;;30.44;30.22;99998.50;4958859;28;20118;-74
2021/08/30 07:56:32;;;;;;;4.50;2.40;;;;;;;30.77;29.79;100006.69;4959333;28;20122;-77
2021/08/30 07:58:57;;;;;;;3.42;2.45;;;;;;;31.17;29.05;100007.84;4959200;28;20051;-78
2021/08/30 08:01:23;;;;;;;2.10;1.58;;;;;;;31.87;28.38;100011.47;4958379;28;20602;-76
2021/08/30 08:03:48;;;;;;;8.35;2.85;;;;;;;32.32;27.86;100018.22;4958604;28;20031;-79
2021/08/30 08:06:15;;;;;;;1.90;1.77;;;;;;;31.66;28.77;100023.09;4958597;28;20085;-74
2021/08/30 08:08:41;;;;;;;3.22;1.88;;;;;;;31.89;28.50;100017.50;4959234;28;20053;-80
2021/08/30 08:11:09;;;;;;;2.08;1.70;;;;;;;30.48;30.52;100024.09;4958842;28;20459;-76
2021/08/30 08:13:35;;;;;;;2.15;1.70;;;;;;;30.66;30.74;100026.66;4958734;28;20035;-79
2021/08/30 08:16:03;;;;;;;2.33;1.90;;;;;;;29.90;32.13;100028.84;4958432;28;20027;-77
2021/08/30 08:18:30;;;;;;;3.88;2.15;;;;;;;29.98;31.81;100027.88;4958205;28;20065;-78
2021/08/30 08:20:56;;;;;;;3.45;1.80;;;;;;;30.39;31.43;100027.13;4958376;28;20023;-74
2021/08/30 08:23:22;;;;;;;4.60;1.92;;;;;;;29.90;32.09;100037.44;4976006;28;20030;-79
2021/08/30 08:25:48;;;;;;;2.58;1.98;;;;;;;30.22;31.73;100047.03;4958281;28;20042;-77
2021/08/30 08:28:13;;;;;;;2.83;1.88;;;;;;;30.08;31.29;100045.75;4958885;28;20039;-77
2021/08/30 08:30:39;;;;;;;3.88;1.85;;;;;;;30.46;31.26;100046.78;4958549;28;20493;-74
2021/08/30 08:33:05;;;;;;;3.47;1.98;;;;;;;31.08;30.21;100051.09;4958166;28;20496;-75
2021/08/30 08:35:30;;;;;;;5.90;3.13;;;;;;;31.25;29.72;100045.50;4958225;28;20054;-80
2021/08/30 08:37:56;;;;;;;2.33;1.70;;;;;;;31.44;29.70;100058.25;4958765;28;20041;-78
2021/08/30 08:40:23;;;;;;;1.88;1.70;;;;;;;32.19;28.61;100053.22;4958137;28;20026;-78
2021/08/30 08:42:49;;;;;;;2.72;1.92;;;;;;;32.69;27.58;100061.28;4957812;28;20031;-75
2021/08/30 08:45:20;;;;;;;3.28;1.40;;;;;;;32.86;27.46;100050.56;4957992;28;20038;-76
2021/08/30 08:47:45;;;;;;;2.40;1.48;;;;;;;33.49;26.62;100045.69;4957773;28;20447;-76
2021/08/30 08:50:15;;;;;;;2.90;1.50;;;;;;;33.55;26.46;100050.13;4957925;28;20122;-75
2021/08/30 08:52:45;;;;;;;1.75;1.65;;;;;;;34.14;25.83;100051.88;4974849;28;20062;-74
2021/08/30 08:55:13;;;;;;;6.85;2.00;;;;;;;34.28;25.59;100060.72;4957654;28;20031;-76
2021/08/30 08:57:39;;;;;;;2.33;1.85;;;;;;;31.34;29.34;100038.81;4958199;28;20466;-76
2021/08/30 09:00:08;;;;;;;2.60;2.03;;;;;;;31.39;29.82;100049.56;4975674;28;20346;-78
2021/08/30 09:02:34;;;;;;;2.40;1.60;;;;;;;29.80;32.20;100053.97;4957579;28;20059;-77
2021/08/30 09:05:01;;;;;;;2.40;1.83;;;;;;;28.64;33.96;100057.97;4957687;28;20026;-76
2021/08/30 09:07:35;;;;;;;3.05;2.47;;;;;;;28.89;34.01;100058.69;4957610;28;20031;-76
2021/08/30 09:10:02;;;;;;;2.17;1.98;;;;;;;29.53;32.60;100055.16;4957491;28;20030;-78
2021/08/30 09:12:28;;;;;;;4.07;1.98;;;;;;;30.31;31.17;100055.50;4958106;28;20031;-77
2021/08/30 09:14:54;;;;;;;1.92;1.70;;;;;;;31.18;30.02;100061.13;4957785;28;20049;-74
2021/08/30 09:17:19;;;;;;;3.70;1.70;;;;;;;31.46;29.38;100054.84;4957800;28;20031;-78
2021/08/30 09:19:45;;;;;;;3.88;2.05;;;;;;;31.63;28.87;100047.13;4957015;28;20409;-77
2021/08/30 09:22:12;;;;;;;4.15;1.98;;;;;;;31.99;28.32;100059.94;4957518;28;20454;-76
2021/08/30 09:24:38;;;;;;;2.17;1.80;;;;;;;31.04;29.72;100059.16;4957366;28;20047;-74
2021/08/30 09:27:05;;;;;;;1.92;1.63;;;;;;;32.24;28.35;100060.31;4957211;28;20058;-77
2021/08/30 09:29:42;;;;;;;3.72;1.90;;;;;;;31.30;29.58;100054.19;4957216;28;20058;-75
2021/08/30 09:32:14;;;;;;;3.67;2.05;;;;;;;30.96;29.69;100049.44;4957899;28;20027;-76
2021/08/30 09:34:46;;;;;;;1.60;1.50;;;;;;;32.29;28.00;100048.81;4957327;28;20038;-78
2021/08/30 09:37:17;;;;;;;2.28;1.83;;;;;;;32.45;27.29;100047.34;4956923;28;20030;-79
2021/08/30 09:39:45;;;;;;;2.40;1.80;;;;;;;32.18;27.51;100053.75;4957403;28;20437;-77
2021/08/30 09:42:11;;;;;;;5.10;2.05;;;;;;;32.28;27.59;100049.31;4957307;28;20089;-76
2021/08/30 09:44:37;;;;;;;5.00;1.70;;;;;;;32.08;27.88;100050.31;4957443;28;20026;-78
2021/08/30 09:47:14;;;;;;;3.35;1.50;;;;;;;32.36;27.91;100056.19;4957162;28;20544;-75
2021/08/30 09:49:40;;;;;;;3.25;1.98;;;;;;;31.47;29.40;100047.78;4974106;28;20026;-74
2021/08/30 09:52:07;;;;;;;1.95;1.20;;;;;;;31.02;30.30;100044.53;4957451;28;20023;-77
2021/08/30 09:54:33;;;;;;;4.05;2.00;;;;;;;30.67;31.10;100042.56;4957270;28;20447;-79
2021/08/30 09:56:59;;;;;;;1.67;1.40;;;;;;;30.18;31.62;100041.50;4956782;28;20133;-78
2021/08/30 09:59:28;;;;;;;2.05;1.60;;;;;;;31.54;30.31;100050.22;4960567;28;20431;-79
2021/08/30 10:01:56;;;;;;;3.15;1.55;;;;;;;32.34;28.79;100053.81;4978860;28;20038;-79
2021/08/30 10:04:24;;;;;;;1.60;1.50;;;;;;;33.18;27.31;100043.81;4960796;28;20048;-76
2021/08/30 10:06:51;;;;;;;1.67;1.58;;;;;;;33.56;26.11;100050.94;4961140;28;20126;-79
2021/08/30 10:09:20;;;;;;;1.65;1.52;;;;;;;34.04;25.79;100050.59;4960660;28;20031;-78
2021/08/30 10:11:48;;;;;;;2.05;1.52;;;;;;;34.38;24.42;100045.44;4960966;28;20031;-75
2021/08/30 10:14:28;;;;;;;3.55;1.40;;;;;;;32.95;26.43;100048.78;4959904;28;20034;-76
2021/08/30 10:16:56;;;;;;;2.28;1.80;;;;;;;33.26;26.49;100044.88;4960308;28;20110;-79
2021/08/30 10:19:33;;;;;;;2.50;1.58;;;;;;;32.63;27.88;100034.56;4960851;28;20057;-77
2021/08/30 10:22:01;;;;;;;2.05;1.55;;;;;;;31.72;29.18;100032.53;4960468;28;20482;-77
2021/08/30 10:24:42;;;;;;;2.13;1.50;;;;;;;31.98;29.56;100037.44;4961393;28;20057;-75
2021/08/30 10:27:11;;;;;;;2.13;1.40;;;;;;;32.33;29.58;100034.16;4960655;28;20213;-76
2021/08/30 10:29:39;;;;;;;3.03;1.42;;;;;;;32.18;29.52;100040.16;4960476;28;20103;-76
2021/08/30 10:32:08;;;;;;;3.25;1.33;;;;;;;30.72;31.78;100033.25;4978328;28;20126;-75
2021/08/30 10:34:35;;;;;;;1.70;1.60;;;;;;;30.20;32.42;100038.09;4960551;28;20093;-75
2021/08/30 10:37:05;;;;;;;3.38;1.20;;;;;;;30.09;32.46;100038.72;4977818;28;20470;-75
2021/08/30 10:39:42;;;;;;;4.53;1.27;;;;;;;30.90;31.38;100039.97;4960892;28;20038;-76
2021/08/30 10:42:14;;;;;;;2.55;1.60;;;;;;;30.71;31.65;100039.50;4960289;28;20513;-79
2021/08/30 10:44:55;;;;;;;1.93;1.43;;;;;;;30.75;31.47;100040.09;4960269;28;20027;-78
2021/08/30 10:47:25;;;;;;;2.58;1.10;;;;;;;31.38;30.53;100048.00;4977436;28;20586;-79
2021/08/30 10:49:53;;;;;;;2.42;1.55;;;;;;;31.88;30.18;100033.19;4960111;28;20470;-78
2021/08/30 10:52:19;;;;;;;1.73;1.38;;;;;;;32.33;28.92;100039.94;4960049;28;20051;-79
2021/08/30 10:54:49;;;;;;;1.25;1.13;;;;;;;32.06;29.58;100042.16;4960110;28;20058;-74
2021/08/30 10:57:15;;;;;;;1.10;1.00;;;;;;;32.18;29.76;100039.38;4960503;28;20045;-76
2021/08/30 10:59:43;;;;;;;1.95;1.40;;;;;;;32.80;28.80;100044.00;4959964;28;20038;-78
2021/08/30 11:02:09;;;;;;;1.40;1.30;;;;;;;32.02;28.72;100037.97;4960081;28;20045;-76
2021/08/30 11:04:41;;;;;;;2.72;1.10;;;;;;;32.78;27.65;100040.88;4960627;28;20374;-74
2021/08/30 11:07:07;;;;;;;2.20;1.45;;;;;;;32.81;27.60;100039.84;4944655;28;20117;-79
2021/08/30 11:09:34;;;;;;;4.72;1.10;;;;;;;32.45;27.95;100037.94;4959395;28;20030;-74
2021/08/30 11:12:26;;;;;;;0.80;0.80;;;;;;;32.24;26.65;100040.97;4959759;28;20037;-78
2021/08/30 11:14:57;;;;;;;1.67;1.10;;;;;;;31.87;28.07;100020.13;4955632;28;20049;-79
2021/08/30 11:17:33;;;;;;;1.20;1.10;;;;;;;31.97;27.74;100039.53;4959607;28;20034;-75
2021/08/30 11:20:00;;;;;;;2.95;1.17;;;;;;;31.62;28.01;100039.81;4959363;28;20501;-76
2021/08/30 11:22:27;;;;;;;1.98;1.08;;;;;;;32.56;25.96;100035.06;4959608;28;20090;-78
2021/08/30 11:24:53;;;;;;;7.50;1.55;;;;;;;32.67;27.27;100037.19;4960359;28;20109;-78
2021/08/30 11:27:20;;;;;;;1.25;1.15;;;;;;;32.14;27.57;100033.84;4959424;28;20034;-75
2021/08/30 11:29:46;;;;;;;0.98;0.90;;;;;;;32.53;27.58;100030.34;4959339;28;20027;-78
2021/08/30 11:32:15;;;;;;;1.45;1.15;;;;;;;32.89;27.50;100027.81;4959369;28;20034;-75
2021/08/30 11:34:42;;;;;;;2.50;1.10;;;;;;;32.65;27.06;100031.16;4959779;28;20034;-76